sensor_id;sensor_type;location;lat;lon;timestamp;P1;durP1;ratioP1;P2;durP2;ratioP2
60372;SDS011;46216;52.220;5.134;2023-04-15T00:01:18;9.25;;;5.00;;
60372;SDS011;46216;52.220;5.134;2023-04-15T00:03:43;9.93;;;5.38;;
60372;SDS011;46216;52.220;5.134;2023-04-15T00:06:09;8.32;;;5.40;;
60372;SDS011;46216;52.220;5.134;2023-04-15T00:08:34;11.18;;;5.07;;
60372;SDS011;46216;52.220;5.134;2023-04-15T00:11:00;6.82;;;4.93;;
60372;SDS011;46216;52.220;5.134;2023-04-15T00:13:27;7.43;;;5.28;;
60372;SDS011;46216;52.220;5.134;2023-04-15T00:15:52;8.95;;;5.25;;
60372;SDS011;46216;52.220;5.134;2023-04-15T00:18:17;8.68;;;5.20;;
60372;SDS011;46216;52.220;5.134;2023-04-15T00:20:43;8.48;;;5.20;;
60372;SDS011;46216;52.220;5.134;2023-04-15T00:23:08;8.77;;;5.43;;
60372;SDS011;46216;52.220;5.134;2023-04-15T00:25:33;9.18;;;5.10;;
60372;SDS011;46216;52.220;5.134;2023-04-15T00:27:59;6.82;;;5.03;;
60372;SDS011;46216;52.220;5.134;2023-04-15T00:30:24;9.45;;;5.28;;
60372;SDS011;46216;52.220;5.134;2023-04-15T00:32:50;9.25;;;5.07;;
60372;SDS011;46216;52.220;5.134;2023-04-15T00:35:15;5.85;;;4.80;;
60372;SDS011;46216;52.220;5.134;2023-04-15T00:37:41;7.70;;;5.18;;
60372;SDS011;46216;52.220;5.134;2023-04-15T00:40:08;8.80;;;4.80;;
60372;SDS011;46216;52.220;5.134;2023-04-15T00:42:37;11.70;;;5.20;;
60372;SDS011;46216;52.220;5.134;2023-04-15T00:45:03;7.95;;;4.90;;
60372;SDS011;46216;52.220;5.134;2023-04-15T00:47:29;7.18;;;5.20;;
60372;SDS011;46216;52.220;5.134;2023-04-15T00:49:55;8.10;;;5.30;;
60372;SDS011;46216;52.220;5.134;2023-04-15T00:52:22;8.18;;;5.10;;
60372;SDS011;46216;52.220;5.134;2023-04-15T00:54:47;7.97;;;5.07;;
60372;SDS011;46216;52.220;5.134;2023-04-15T00:57:12;8.50;;;5.00;;
60372;SDS011;46216;52.220;5.134;2023-04-15T00:59:38;8.20;;;5.10;;
60372;SDS011;46216;52.220;5.134;2023-04-15T01:02:03;7.18;;;5.00;;
60372;SDS011;46216;52.220;5.134;2023-04-15T01:04:29;11.63;;;5.50;;
60372;SDS011;46216;52.220;5.134;2023-04-15T01:06:55;8.00;;;5.10;;
60372;SDS011;46216;52.220;5.134;2023-04-15T01:09:21;8.25;;;5.30;;
60372;SDS011;46216;52.220;5.134;2023-04-15T01:11:47;7.78;;;4.85;;
60372;SDS011;46216;52.220;5.134;2023-04-15T01:14:12;5.97;;;5.10;;
60372;SDS011;46216;52.220;5.134;2023-04-15T01:16:38;9.30;;;5.38;;
60372;SDS011;46216;52.220;5.134;2023-04-15T01:19:07;7.47;;;5.10;;
60372;SDS011;46216;52.220;5.134;2023-04-15T01:21:37;8.15;;;5.25;;
60372;SDS011;46216;52.220;5.134;2023-04-15T01:24:05;11.60;;;5.45;;
60372;SDS011;46216;52.220;5.134;2023-04-15T01:26:37;7.95;;;5.88;;
60372;SDS011;46216;52.220;5.134;2023-04-15T01:29:03;8.40;;;5.53;;
60372;SDS011;46216;52.220;5.134;2023-04-15T01:31:28;8.55;;;5.20;;
60372;SDS011;46216;52.220;5.134;2023-04-15T01:33:53;8.40;;;5.32;;
60372;SDS011;46216;52.220;5.134;2023-04-15T01:36:19;8.98;;;5.95;;
60372;SDS011;46216;52.220;5.134;2023-04-15T01:38:44;7.97;;;5.28;;
60372;SDS011;46216;52.220;5.134;2023-04-15T01:41:10;8.00;;;5.25;;
60372;SDS011;46216;52.220;5.134;2023-04-15T01:43:35;6.82;;;5.30;;
60372;SDS011;46216;52.220;5.134;2023-04-15T01:46:01;9.15;;;5.38;;
60372;SDS011;46216;52.220;5.134;2023-04-15T01:48:27;7.60;;;5.00;;
60372;SDS011;46216;52.220;5.134;2023-04-15T01:50:53;6.88;;;5.00;;
60372;SDS011;46216;52.220;5.134;2023-04-15T01:53:18;7.13;;;5.10;;
60372;SDS011;46216;52.220;5.134;2023-04-15T01:55:44;8.60;;;5.38;;
60372;SDS011;46216;52.220;5.134;2023-04-15T01:58:10;6.97;;;5.00;;
60372;SDS011;46216;52.220;5.134;2023-04-15T02:00:35;10.90;;;5.40;;
60372;SDS011;46216;52.220;5.134;2023-04-15T02:03:00;8.38;;;4.85;;
60372;SDS011;46216;52.220;5.134;2023-04-15T02:05:26;7.70;;;5.65;;
60372;SDS011;46216;52.220;5.134;2023-04-15T02:07:51;6.38;;;5.32;;
60372;SDS011;46216;52.220;5.134;2023-04-15T02:10:17;9.07;;;5.40;;
60372;SDS011;46216;52.220;5.134;2023-04-15T02:12:43;8.68;;;5.40;;
60372;SDS011;46216;52.220;5.134;2023-04-15T02:15:08;8.23;;;5.18;;
60372;SDS011;46216;52.220;5.134;2023-04-15T02:17:34;6.32;;;5.20;;
60372;SDS011;46216;52.220;5.134;2023-04-15T02:20:00;7.13;;;4.90;;
60372;SDS011;46216;52.220;5.134;2023-04-15T02:22:26;8.98;;;5.10;;
60372;SDS011;46216;52.220;5.134;2023-04-15T02:24:51;8.77;;;5.03;;
60372;SDS011;46216;52.220;5.134;2023-04-15T02:27:17;7.88;;;5.13;;
60372;SDS011;46216;52.220;5.134;2023-04-15T02:29:45;7.80;;;5.10;;
60372;SDS011;46216;52.220;5.134;2023-04-15T02:32:13;8.98;;;5.40;;
60372;SDS011;46216;52.220;5.134;2023-04-15T02:34:39;7.95;;;4.85;;
60372;SDS011;46216;52.220;5.134;2023-04-15T02:37:07;7.97;;;5.53;;
60372;SDS011;46216;52.220;5.134;2023-04-15T02:39:36;7.32;;;5.32;;
60372;SDS011;46216;52.220;5.134;2023-04-15T02:42:02;7.22;;;5.15;;
60372;SDS011;46216;52.220;5.134;2023-04-15T02:44:28;6.85;;;5.20;;
60372;SDS011;46216;52.220;5.134;2023-04-15T02:46:55;6.57;;;4.90;;
60372;SDS011;46216;52.220;5.134;2023-04-15T02:49:20;7.70;;;6.00;;
60372;SDS011;46216;52.220;5.134;2023-04-15T02:51:47;8.98;;;5.88;;
60372;SDS011;46216;52.220;5.134;2023-04-15T02:54:14;8.07;;;5.57;;
60372;SDS011;46216;52.220;5.134;2023-04-15T02:56:40;7.68;;;5.38;;
60372;SDS011;46216;52.220;5.134;2023-04-15T02:59:06;9.00;;;5.22;;
60372;SDS011;46216;52.220;5.134;2023-04-15T03:01:31;10.20;;;5.40;;
60372;SDS011;46216;52.220;5.134;2023-04-15T03:03:56;8.60;;;5.72;;
60372;SDS011;46216;52.220;5.134;2023-04-15T03:06:22;7.78;;;5.43;;
60372;SDS011;46216;52.220;5.134;2023-04-15T03:08:48;9.55;;;5.68;;
60372;SDS011;46216;52.220;5.134;2023-04-15T03:11:14;7.55;;;5.20;;
60372;SDS011;46216;52.220;5.134;2023-04-15T03:13:40;6.95;;;5.60;;
60372;SDS011;46216;52.220;5.134;2023-04-15T03:16:07;6.03;;;5.43;;
60372;SDS011;46216;52.220;5.134;2023-04-15T03:18:32;9.55;;;5.97;;
60372;SDS011;46216;52.220;5.134;2023-04-15T03:20:58;8.00;;;5.63;;
60372;SDS011;46216;52.220;5.134;2023-04-15T03:23:23;6.78;;;5.57;;
60372;SDS011;46216;52.220;5.134;2023-04-15T03:25:50;9.95;;;5.95;;
60372;SDS011;46216;52.220;5.134;2023-04-15T03:28:15;9.48;;;6.07;;
60372;SDS011;46216;52.220;5.134;2023-04-15T03:30:40;7.53;;;5.22;;
60372;SDS011;46216;52.220;5.134;2023-04-15T03:33:06;8.30;;;5.70;;
60372;SDS011;46216;52.220;5.134;2023-04-15T03:35:32;8.82;;;6.03;;
60372;SDS011;46216;52.220;5.134;2023-04-15T03:37:58;8.05;;;5.45;;
60372;SDS011;46216;52.220;5.134;2023-04-15T03:40:23;10.32;;;5.88;;
60372;SDS011;46216;52.220;5.134;2023-04-15T03:42:48;7.93;;;5.85;;
60372;SDS011;46216;52.220;5.134;2023-04-15T03:45:14;8.07;;;5.20;;
60372;SDS011;46216;52.220;5.134;2023-04-15T03:47:40;6.80;;;5.82;;
60372;SDS011;46216;52.220;5.134;2023-04-15T03:50:05;8.93;;;6.10;;
60372;SDS011;46216;52.220;5.134;2023-04-15T03:52:31;7.90;;;5.53;;
60372;SDS011;46216;52.220;5.134;2023-04-15T03:54:56;9.57;;;6.00;;
60372;SDS011;46216;52.220;5.134;2023-04-15T03:57:22;8.30;;;5.95;;
60372;SDS011;46216;52.220;5.134;2023-04-15T03:59:47;8.98;;;5.55;;
60372;SDS011;46216;52.220;5.134;2023-04-15T04:02:12;7.25;;;6.10;;
60372;SDS011;46216;52.220;5.134;2023-04-15T04:04:37;9.20;;;6.03;;
60372;SDS011;46216;52.220;5.134;2023-04-15T04:07:03;8.77;;;6.30;;
60372;SDS011;46216;52.220;5.134;2023-04-15T04:09:28;8.20;;;6.32;;
60372;SDS011;46216;52.220;5.134;2023-04-15T04:11:54;7.70;;;5.88;;
60372;SDS011;46216;52.220;5.134;2023-04-15T04:14:20;9.82;;;6.95;;
60372;SDS011;46216;52.220;5.134;2023-04-15T04:16:50;8.55;;;6.30;;
60372;SDS011;46216;52.220;5.134;2023-04-15T04:19:15;8.65;;;6.40;;
60372;SDS011;46216;52.220;5.134;2023-04-15T04:21:43;9.52;;;6.55;;
60372;SDS011;46216;52.220;5.134;2023-04-15T04:24:08;11.15;;;6.55;;
60372;SDS011;46216;52.220;5.134;2023-04-15T04:26:34;8.68;;;6.68;;
60372;SDS011;46216;52.220;5.134;2023-04-15T04:28:59;12.88;;;6.70;;
60372;SDS011;46216;52.220;5.134;2023-04-15T04:31:24;9.63;;;7.00;;
60372;SDS011;46216;52.220;5.134;2023-04-15T04:33:50;7.68;;;6.20;;
60372;SDS011;46216;52.220;5.134;2023-04-15T04:36:15;8.23;;;6.68;;
60372;SDS011;46216;52.220;5.134;2023-04-15T04:38:41;11.95;;;6.97;;
60372;SDS011;46216;52.220;5.134;2023-04-15T04:41:06;12.23;;;6.90;;
60372;SDS011;46216;52.220;5.134;2023-04-15T04:43:31;12.05;;;6.78;;
60372;SDS011;46216;52.220;5.134;2023-04-15T04:45:56;9.43;;;6.97;;
60372;SDS011;46216;52.220;5.134;2023-04-15T04:48:22;10.75;;;6.60;;
60372;SDS011;46216;52.220;5.134;2023-04-15T04:50:47;8.80;;;6.93;;
60372;SDS011;46216;52.220;5.134;2023-04-15T04:53:12;10.02;;;6.80;;
60372;SDS011;46216;52.220;5.134;2023-04-15T04:55:38;11.85;;;7.22;;
60372;SDS011;46216;52.220;5.134;2023-04-15T04:58:04;10.32;;;7.22;;
60372;SDS011;46216;52.220;5.134;2023-04-15T05:00:29;10.63;;;6.93;;
60372;SDS011;46216;52.220;5.134;2023-04-15T05:02:55;9.38;;;6.70;;
60372;SDS011;46216;52.220;5.134;2023-04-15T05:05:20;8.38;;;6.82;;
60372;SDS011;46216;52.220;5.134;2023-04-15T05:07:46;10.57;;;7.00;;
60372;SDS011;46216;52.220;5.134;2023-04-15T05:10:13;10.07;;;6.90;;
60372;SDS011;46216;52.220;5.134;2023-04-15T05:12:39;10.40;;;7.25;;
60372;SDS011;46216;52.220;5.134;2023-04-15T05:15:05;8.60;;;6.80;;
60372;SDS011;46216;52.220;5.134;2023-04-15T05:17:30;10.90;;;7.38;;
60372;SDS011;46216;52.220;5.134;2023-04-15T05:19:57;10.10;;;6.65;;
60372;SDS011;46216;52.220;5.134;2023-04-15T05:22:22;9.75;;;7.13;;
60372;SDS011;46216;52.220;5.134;2023-04-15T05:24:47;9.57;;;7.07;;
60372;SDS011;46216;52.220;5.134;2023-04-15T05:27:13;9.75;;;7.13;;
60372;SDS011;46216;52.220;5.134;2023-04-15T05:29:38;8.93;;;6.95;;
60372;SDS011;46216;52.220;5.134;2023-04-15T05:32:03;10.52;;;7.05;;
60372;SDS011;46216;52.220;5.134;2023-04-15T05:34:29;8.15;;;7.30;;
60372;SDS011;46216;52.220;5.134;2023-04-15T05:36:55;8.98;;;7.38;;
60372;SDS011;46216;52.220;5.134;2023-04-15T05:39:20;9.27;;;7.13;;
60372;SDS011;46216;52.220;5.134;2023-04-15T05:41:46;9.52;;;7.93;;
60372;SDS011;46216;52.220;5.134;2023-04-15T05:44:11;9.35;;;7.20;;
60372;SDS011;46216;52.220;5.134;2023-04-15T05:46:37;9.63;;;7.60;;
60372;SDS011;46216;52.220;5.134;2023-04-15T05:49:02;12.07;;;7.93;;
60372;SDS011;46216;52.220;5.134;2023-04-15T05:51:27;9.32;;;7.47;;
60372;SDS011;46216;52.220;5.134;2023-04-15T05:53:53;8.60;;;7.70;;
60372;SDS011;46216;52.220;5.134;2023-04-15T05:56:18;9.25;;;7.68;;
60372;SDS011;46216;52.220;5.134;2023-04-15T05:58:44;10.13;;;7.85;;
60372;SDS011;46216;52.220;5.134;2023-04-15T06:01:10;9.52;;;7.93;;
60372;SDS011;46216;52.220;5.134;2023-04-15T06:03:36;11.23;;;8.20;;
60372;SDS011;46216;52.220;5.134;2023-04-15T06:06:02;9.77;;;7.88;;
60372;SDS011;46216;52.220;5.134;2023-04-15T06:08:29;9.15;;;8.10;;
60372;SDS011;46216;52.220;5.134;2023-04-15T06:10:54;10.98;;;8.60;;
60372;SDS011;46216;52.220;5.134;2023-04-15T06:13:20;11.25;;;8.25;;
60372;SDS011;46216;52.220;5.134;2023-04-15T06:15:45;16.33;;;10.18;;
60372;SDS011;46216;52.220;5.134;2023-04-15T06:18:11;9.95;;;8.95;;
60372;SDS011;46216;52.220;5.134;2023-04-15T06:20:37;12.10;;;8.73;;
60372;SDS011;46216;52.220;5.134;2023-04-15T06:23:02;10.88;;;8.38;;
60372;SDS011;46216;52.220;5.134;2023-04-15T06:25:27;14.90;;;9.20;;
60372;SDS011;46216;52.220;5.134;2023-04-15T06:27:53;10.95;;;9.10;;
60372;SDS011;46216;52.220;5.134;2023-04-15T06:30:18;10.63;;;8.90;;
60372;SDS011;46216;52.220;5.134;2023-04-15T06:32:43;12.30;;;9.63;;
60372;SDS011;46216;52.220;5.134;2023-04-15T06:35:09;11.38;;;9.05;;
60372;SDS011;46216;52.220;5.134;2023-04-15T06:37:34;10.85;;;9.02;;
60372;SDS011;46216;52.220;5.134;2023-04-15T06:40:01;10.60;;;9.30;;
60372;SDS011;46216;52.220;5.134;2023-04-15T06:42:28;11.93;;;9.30;;
60372;SDS011;46216;52.220;5.134;2023-04-15T06:44:53;10.77;;;9.07;;
60372;SDS011;46216;52.220;5.134;2023-04-15T06:47:18;13.30;;;9.82;;
60372;SDS011;46216;52.220;5.134;2023-04-15T06:49:44;12.82;;;9.93;;
60372;SDS011;46216;52.220;5.134;2023-04-15T06:52:09;11.00;;;9.27;;
60372;SDS011;46216;52.220;5.134;2023-04-15T06:54:34;11.55;;;9.20;;
60372;SDS011;46216;52.220;5.134;2023-04-15T06:57:00;11.40;;;9.82;;
60372;SDS011;46216;52.220;5.134;2023-04-15T06:59:25;12.80;;;10.00;;
60372;SDS011;46216;52.220;5.134;2023-04-15T07:01:51;12.18;;;9.73;;
60372;SDS011;46216;52.220;5.134;2023-04-15T07:04:16;12.02;;;9.27;;
60372;SDS011;46216;52.220;5.134;2023-04-15T07:06:41;10.65;;;8.75;;
60372;SDS011;46216;52.220;5.134;2023-04-15T07:09:07;9.85;;;8.57;;
60372;SDS011;46216;52.220;5.134;2023-04-15T07:11:32;11.50;;;8.45;;
60372;SDS011;46216;52.220;5.134;2023-04-15T07:13:58;12.23;;;8.60;;
60372;SDS011;46216;52.220;5.134;2023-04-15T07:16:23;10.35;;;8.05;;
60372;SDS011;46216;52.220;5.134;2023-04-15T07:18:48;9.90;;;8.32;;
60372;SDS011;46216;52.220;5.134;2023-04-15T07:21:14;9.02;;;7.15;;
60372;SDS011;46216;52.220;5.134;2023-04-15T07:23:39;9.00;;;7.15;;
60372;SDS011;46216;52.220;5.134;2023-04-15T07:26:04;9.60;;;7.65;;
60372;SDS011;46216;52.220;5.134;2023-04-15T07:28:29;6.88;;;6.05;;
60372;SDS011;46216;52.220;5.134;2023-04-15T07:30:55;10.18;;;6.95;;
60372;SDS011;46216;52.220;5.134;2023-04-15T07:33:23;8.60;;;6.70;;
60372;SDS011;46216;52.220;5.134;2023-04-15T07:35:48;7.78;;;5.82;;
60372;SDS011;46216;52.220;5.134;2023-04-15T07:38:14;8.38;;;6.13;;
60372;SDS011;46216;52.220;5.134;2023-04-15T07:40:42;7.20;;;5.85;;
60372;SDS011;46216;52.220;5.134;2023-04-15T07:43:07;7.95;;;6.35;;
60372;SDS011;46216;52.220;5.134;2023-04-15T07:45:34;5.70;;;5.05;;
60372;SDS011;46216;52.220;5.134;2023-04-15T07:47:59;7.97;;;5.88;;
60372;SDS011;46216;52.220;5.134;2023-04-15T07:50:25;7.68;;;5.60;;
60372;SDS011;46216;52.220;5.134;2023-04-15T07:52:51;6.47;;;5.22;;
60372;SDS011;46216;52.220;5.134;2023-04-15T07:55:17;7.07;;;5.65;;
60372;SDS011;46216;52.220;5.134;2023-04-15T07:57:45;7.82;;;5.82;;
60372;SDS011;46216;52.220;5.134;2023-04-15T08:00:11;8.35;;;5.80;;
60372;SDS011;46216;52.220;5.134;2023-04-15T08:02:37;9.15;;;6.20;;
60372;SDS011;46216;52.220;5.134;2023-04-15T08:05:03;7.20;;;4.95;;
60372;SDS011;46216;52.220;5.134;2023-04-15T08:07:29;7.32;;;5.85;;
60372;SDS011;46216;52.220;5.134;2023-04-15T08:09:55;7.38;;;5.40;;
60372;SDS011;46216;52.220;5.134;2023-04-15T08:12:20;8.93;;;5.72;;
60372;SDS011;46216;52.220;5.134;2023-04-15T08:14:46;7.00;;;5.68;;
60372;SDS011;46216;52.220;5.134;2023-04-15T08:17:11;8.82;;;6.40;;
60372;SDS011;46216;52.220;5.134;2023-04-15T08:19:36;7.68;;;5.82;;
60372;SDS011;46216;52.220;5.134;2023-04-15T08:22:02;8.00;;;6.10;;
60372;SDS011;46216;52.220;5.134;2023-04-15T08:24:27;7.88;;;5.82;;
60372;SDS011;46216;52.220;5.134;2023-04-15T08:26:53;9.13;;;5.45;;
60372;SDS011;46216;52.220;5.134;2023-04-15T08:29:18;7.30;;;5.57;;
60372;SDS011;46216;52.220;5.134;2023-04-15T08:31:43;6.63;;;5.10;;
60372;SDS011;46216;52.220;5.134;2023-04-15T08:34:12;6.72;;;5.40;;
60372;SDS011;46216;52.220;5.134;2023-04-15T08:36:37;5.78;;;5.18;;
60372;SDS011;46216;52.220;5.134;2023-04-15T08:39:03;6.45;;;4.75;;
60372;SDS011;46216;52.220;5.134;2023-04-15T08:41:30;5.75;;;5.10;;
60372;SDS011;46216;52.220;5.134;2023-04-15T08:44:17;5.97;;;4.82;;
60372;SDS011;46216;52.220;5.134;2023-04-15T08:46:44;5.03;;;4.32;;
60372;SDS011;46216;52.220;5.134;2023-04-15T08:49:11;4.82;;;3.90;;
60372;SDS011;46216;52.220;5.134;2023-04-15T08:51:37;6.45;;;4.28;;
60372;SDS011;46216;52.220;5.134;2023-04-15T08:54:04;4.43;;;3.50;;
60372;SDS011;46216;52.220;5.134;2023-04-15T08:56:30;5.20;;;4.43;;
60372;SDS011;46216;52.220;5.134;2023-04-15T08:58:58;5.78;;;4.25;;
60372;SDS011;46216;52.220;5.134;2023-04-15T09:01:24;5.05;;;4.22;;
60372;SDS011;46216;52.220;5.134;2023-04-15T09:03:50;5.07;;;4.45;;
60372;SDS011;46216;52.220;5.134;2023-04-15T09:06:18;6.35;;;4.57;;
60372;SDS011;46216;52.220;5.134;2023-04-15T09:08:45;6.45;;;4.97;;
60372;SDS011;46216;52.220;5.134;2023-04-15T09:11:10;6.35;;;4.35;;
60372;SDS011;46216;52.220;5.134;2023-04-15T09:13:36;5.68;;;4.18;;
60372;SDS011;46216;52.220;5.134;2023-04-15T09:16:02;4.63;;;3.63;;
60372;SDS011;46216;52.220;5.134;2023-04-15T09:18:30;7.22;;;4.25;;
60372;SDS011;46216;52.220;5.134;2023-04-15T09:21:06;6.05;;;4.13;;
60372;SDS011;46216;52.220;5.134;2023-04-15T09:23:35;6.60;;;4.30;;
60372;SDS011;46216;52.220;5.134;2023-04-15T09:26:01;6.47;;;3.95;;
60372;SDS011;46216;52.220;5.134;2023-04-15T09:28:27;5.00;;;3.78;;
60372;SDS011;46216;52.220;5.134;2023-04-15T09:30:59;4.15;;;3.08;;
60372;SDS011;46216;52.220;5.134;2023-04-15T09:33:26;4.55;;;3.05;;
60372;SDS011;46216;52.220;5.134;2023-04-15T09:35:59;4.28;;;2.72;;
60372;SDS011;46216;52.220;5.134;2023-04-15T09:38:30;2.40;;;2.20;;
60372;SDS011;46216;52.220;5.134;2023-04-15T09:40:56;3.42;;;2.30;;
60372;SDS011;46216;52.220;5.134;2023-04-15T09:43:22;2.63;;;2.08;;
60372;SDS011;46216;52.220;5.134;2023-04-15T09:46:01;2.80;;;2.35;;
60372;SDS011;46216;52.220;5.134;2023-04-15T09:48:26;2.75;;;2.38;;
60372;SDS011;46216;52.220;5.134;2023-04-15T09:50:52;4.32;;;2.70;;
60372;SDS011;46216;52.220;5.134;2023-04-15T09:53:21;3.33;;;2.60;;
60372;SDS011;46216;52.220;5.134;2023-04-15T09:55:51;3.42;;;2.70;;
60372;SDS011;46216;52.220;5.134;2023-04-15T09:58:25;3.40;;;2.97;;
60372;SDS011;46216;52.220;5.134;2023-04-15T10:00:53;4.32;;;3.10;;
60372;SDS011;46216;52.220;5.134;2023-04-15T10:03:27;4.28;;;3.20;;
60372;SDS011;46216;52.220;5.134;2023-04-15T10:05:56;3.53;;;3.10;;
60372;SDS011;46216;52.220;5.134;2023-04-15T10:08:22;3.30;;;3.00;;
60372;SDS011;46216;52.220;5.134;2023-04-15T10:10:49;4.60;;;3.10;;
60372;SDS011;46216;52.220;5.134;2023-04-15T10:13:19;3.97;;;3.58;;
60372;SDS011;46216;52.220;5.134;2023-04-15T10:15:56;4.85;;;3.78;;
60372;SDS011;46216;52.220;5.134;2023-04-15T10:18:24;4.47;;;3.70;;
60372;SDS011;46216;52.220;5.134;2023-04-15T10:20:52;6.93;;;4.03;;
60372;SDS011;46216;52.220;5.134;2023-04-15T10:23:18;4.88;;;4.20;;
60372;SDS011;46216;52.220;5.134;2023-04-15T10:25:45;4.78;;;3.72;;
60372;SDS011;46216;52.220;5.134;2023-04-15T10:28:11;4.53;;;4.10;;
60372;SDS011;46216;52.220;5.134;2023-04-15T10:30:38;4.60;;;4.15;;
60372;SDS011;46216;52.220;5.134;2023-04-15T10:33:04;4.80;;;4.30;;
60372;SDS011;46216;52.220;5.134;2023-04-15T10:35:31;5.05;;;4.47;;
60372;SDS011;46216;52.220;5.134;2023-04-15T10:38:00;5.55;;;4.60;;
60372;SDS011;46216;52.220;5.134;2023-04-15T10:40:29;6.05;;;4.40;;
60372;SDS011;46216;52.220;5.134;2023-04-15T10:42:56;6.35;;;4.90;;
60372;SDS011;46216;52.220;5.134;2023-04-15T10:45:33;5.18;;;4.00;;
60372;SDS011;46216;52.220;5.134;2023-04-15T10:48:05;5.60;;;4.35;;
60372;SDS011;46216;52.220;5.134;2023-04-15T10:50:32;6.57;;;4.78;;
60372;SDS011;46216;52.220;5.134;2023-04-15T10:52:58;6.07;;;4.60;;
60372;SDS011;46216;52.220;5.134;2023-04-15T10:55:30;5.25;;;4.22;;
60372;SDS011;46216;52.220;5.134;2023-04-15T10:57:58;5.60;;;4.25;;
60372;SDS011;46216;52.220;5.134;2023-04-15T11:00:28;4.57;;;4.15;;
60372;SDS011;46216;52.220;5.134;2023-04-15T11:03:07;4.75;;;4.25;;
60372;SDS011;46216;52.220;5.134;2023-04-15T11:08:05;5.03;;;4.40;;
60372;SDS011;46216;52.220;5.134;2023-04-15T11:12:58;5.00;;;4.00;;
60372;SDS011;46216;52.220;5.134;2023-04-15T11:15:40;4.50;;;3.60;;
60372;SDS011;46216;52.220;5.134;2023-04-15T11:20:49;3.83;;;3.10;;
60372;SDS011;46216;52.220;5.134;2023-04-15T11:23:26;3.42;;;2.90;;
60372;SDS011;46216;52.220;5.134;2023-04-15T11:25:53;3.08;;;2.30;;
60372;SDS011;46216;52.220;5.134;2023-04-15T11:28:19;3.63;;;2.20;;
60372;SDS011;46216;52.220;5.134;2023-04-15T11:30:44;3.40;;;2.38;;
60372;SDS011;46216;52.220;5.134;2023-04-15T11:33:10;2.30;;;2.10;;
60372;SDS011;46216;52.220;5.134;2023-04-15T11:35:36;3.13;;;2.50;;
60372;SDS011;46216;52.220;5.134;2023-04-15T11:38:07;2.83;;;2.53;;
60372;SDS011;46216;52.220;5.134;2023-04-15T11:40:34;3.55;;;2.38;;
60372;SDS011;46216;52.220;5.134;2023-04-15T11:43:10;2.55;;;2.30;;
60372;SDS011;46216;52.220;5.134;2023-04-15T11:45:50;2.67;;;2.20;;
60372;SDS011;46216;52.220;5.134;2023-04-15T11:48:16;3.45;;;2.58;;
60372;SDS011;46216;52.220;5.134;2023-04-15T11:50:42;2.70;;;2.30;;
60372;SDS011;46216;52.220;5.134;2023-04-15T11:53:08;2.30;;;2.10;;
60372;SDS011;46216;52.220;5.134;2023-04-15T11:55:45;3.72;;;2.50;;
60372;SDS011;46216;52.220;5.134;2023-04-15T11:58:12;3.17;;;2.58;;
60372;SDS011;46216;52.220;5.134;2023-04-15T12:00:46;4.60;;;2.28;;
60372;SDS011;46216;52.220;5.134;2023-04-15T12:03:17;4.07;;;2.70;;
60372;SDS011;46216;52.220;5.134;2023-04-15T12:11:17;3.30;;;2.50;;
60372;SDS011;46216;52.220;5.134;2023-04-15T12:13:43;4.72;;;2.45;;
60372;SDS011;46216;52.220;5.134;2023-04-15T12:16:10;4.13;;;2.72;;
60372;SDS011;46216;52.220;5.134;2023-04-15T12:18:39;3.03;;;2.30;;
60372;SDS011;46216;52.220;5.134;2023-04-15T12:21:08;2.97;;;2.58;;
60372;SDS011;46216;52.220;5.134;2023-04-15T12:23:37;3.90;;;2.53;;
60372;SDS011;46216;52.220;5.134;2023-04-15T12:26:06;3.22;;;2.78;;
60372;SDS011;46216;52.220;5.134;2023-04-15T12:28:34;3.70;;;2.67;;
60372;SDS011;46216;52.220;5.134;2023-04-15T12:31:05;4.05;;;3.00;;
60372;SDS011;46216;52.220;5.134;2023-04-15T12:33:33;4.78;;;2.60;;
60372;SDS011;46216;52.220;5.134;2023-04-15T12:35:58;2.80;;;2.35;;
60372;SDS011;46216;52.220;5.134;2023-04-15T12:38:23;3.00;;;2.40;;
60372;SDS011;46216;52.220;5.134;2023-04-15T12:40:49;3.95;;;2.53;;
60372;SDS011;46216;52.220;5.134;2023-04-15T12:43:15;4.15;;;2.60;;
60372;SDS011;46216;52.220;5.134;2023-04-15T12:45:40;4.60;;;2.50;;
60372;SDS011;46216;52.220;5.134;2023-04-15T12:48:06;2.42;;;2.22;;
60372;SDS011;46216;52.220;5.134;2023-04-15T12:50:33;6.63;;;2.40;;
60372;SDS011;46216;52.220;5.134;2023-04-15T12:52:59;4.78;;;2.35;;
60372;SDS011;46216;52.220;5.134;2023-04-15T12:55:24;3.10;;;2.08;;
60372;SDS011;46216;52.220;5.134;2023-04-15T12:57:50;4.15;;;2.00;;
60372;SDS011;46216;52.220;5.134;2023-04-15T13:00:16;2.65;;;2.08;;
60372;SDS011;46216;52.220;5.134;2023-04-15T13:02:42;3.40;;;1.77;;
60372;SDS011;46216;52.220;5.134;2023-04-15T13:05:08;3.58;;;1.90;;
60372;SDS011;46216;52.220;5.134;2023-04-15T13:07:33;2.53;;;1.67;;
60372;SDS011;46216;52.220;5.134;2023-04-15T13:09:59;4.13;;;1.67;;
60372;SDS011;46216;52.220;5.134;2023-04-15T13:12:24;4.78;;;1.80;;
60372;SDS011;46216;52.220;5.134;2023-04-15T13:14:51;2.78;;;1.70;;
60372;SDS011;46216;52.220;5.134;2023-04-15T13:17:17;3.47;;;2.13;;
60372;SDS011;46216;52.220;5.134;2023-04-15T13:19:44;3.42;;;1.73;;
60372;SDS011;46216;52.220;5.134;2023-04-15T13:22:09;2.15;;;1.30;;
60372;SDS011;46216;52.220;5.134;2023-04-15T13:24:35;2.03;;;1.20;;
60372;SDS011;46216;52.220;5.134;2023-04-15T13:27:01;2.42;;;1.20;;
60372;SDS011;46216;52.220;5.134;2023-04-15T13:29:26;2.25;;;1.10;;
60372;SDS011;46216;52.220;5.134;2023-04-15T13:31:51;2.22;;;1.20;;
60372;SDS011;46216;52.220;5.134;2023-04-15T13:34:17;1.80;;;1.15;;
60372;SDS011;46216;52.220;5.134;2023-04-15T13:36:42;2.55;;;1.30;;
60372;SDS011;46216;52.220;5.134;2023-04-15T13:39:07;4.75;;;1.90;;
60372;SDS011;46216;52.220;5.134;2023-04-15T13:41:33;2.38;;;1.20;;
60372;SDS011;46216;52.220;5.134;2023-04-15T13:43:58;2.15;;;1.20;;
60372;SDS011;46216;52.220;5.134;2023-04-15T13:46:23;2.70;;;1.30;;
60372;SDS011;46216;52.220;5.134;2023-04-15T13:48:50;2.85;;;1.70;;
60372;SDS011;46216;52.220;5.134;2023-04-15T13:51:15;4.45;;;1.70;;
60372;SDS011;46216;52.220;5.134;2023-04-15T13:53:40;3.35;;;1.67;;
60372;SDS011;46216;52.220;5.134;2023-04-15T13:56:06;3.42;;;1.70;;
60372;SDS011;46216;52.220;5.134;2023-04-15T13:58:32;3.95;;;1.70;;
60372;SDS011;46216;52.220;5.134;2023-04-15T14:00:57;4.60;;;1.80;;
60372;SDS011;46216;52.220;5.134;2023-04-15T14:03:25;4.95;;;1.58;;
60372;SDS011;46216;52.220;5.134;2023-04-15T14:05:50;2.17;;;1.23;;
60372;SDS011;46216;52.220;5.134;2023-04-15T14:08:19;2.67;;;1.60;;
60372;SDS011;46216;52.220;5.134;2023-04-15T14:10:45;3.45;;;1.30;;
60372;SDS011;46216;52.220;5.134;2023-04-15T14:13:12;2.88;;;1.30;;
60372;SDS011;46216;52.220;5.134;2023-04-15T14:15:37;2.88;;;1.25;;
60372;SDS011;46216;52.220;5.134;2023-04-15T14:18:03;2.72;;;1.52;;
60372;SDS011;46216;52.220;5.134;2023-04-15T14:20:28;2.35;;;1.10;;
60372;SDS011;46216;52.220;5.134;2023-04-15T14:22:53;2.10;;;1.30;;
60372;SDS011;46216;52.220;5.134;2023-04-15T14:25:19;2.67;;;1.30;;
60372;SDS011;46216;52.220;5.134;2023-04-15T14:27:44;3.15;;;1.40;;
60372;SDS011;46216;52.220;5.134;2023-04-15T14:30:10;4.70;;;1.48;;
60372;SDS011;46216;52.220;5.134;2023-04-15T14:32:36;3.15;;;1.10;;
60372;SDS011;46216;52.220;5.134;2023-04-15T14:35:02;2.58;;;1.10;;
60372;SDS011;46216;52.220;5.134;2023-04-15T14:37:28;3.97;;;1.15;;
60372;SDS011;46216;52.220;5.134;2023-04-15T14:39:53;2.35;;;1.08;;
60372;SDS011;46216;52.220;5.134;2023-04-15T14:42:19;2.95;;;1.10;;
60372;SDS011;46216;52.220;5.134;2023-04-15T14:44:44;2.10;;;0.93;;
60372;SDS011;46216;52.220;5.134;2023-04-15T14:47:09;2.47;;;1.00;;
60372;SDS011;46216;52.220;5.134;2023-04-15T14:49:35;5.32;;;1.65;;
60372;SDS011;46216;52.220;5.134;2023-04-15T14:52:00;2.55;;;1.10;;
60372;SDS011;46216;52.220;5.134;2023-04-15T14:54:25;3.30;;;1.00;;